createdAt,value
2019-03-28T00:00:08.514Z,29.80
2019-03-28T00:01:08.500Z,26.70
2019-03-28T00:02:08.505Z,31.00
2019-03-28T00:03:08.489Z,30.30
2019-03-28T00:04:08.475Z,28.20
2019-03-28T00:05:08.462Z,34.40
2019-03-28T00:06:08.467Z,32.50
2019-03-28T00:07:08.441Z,31.30
2019-03-28T00:08:08.432Z,29.90
2019-03-28T00:09:08.425Z,29.60
2019-03-28T00:10:08.415Z,28.70
2019-03-28T00:11:08.412Z,31.00
2019-03-28T00:12:08.386Z,28.70
2019-03-28T00:13:08.406Z,33.20
2019-03-28T00:14:08.364Z,29.40
2019-03-28T00:15:08.427Z,30.80
2019-03-28T00:16:08.352Z,32.30
2019-03-28T00:17:08.337Z,31.40
2019-03-28T00:18:08.328Z,30.30
2019-03-28T00:19:08.328Z,31.00
2019-03-28T00:20:08.304Z,33.60
2019-03-28T00:21:08.287Z,30.40
2019-03-28T00:22:08.286Z,30.00
2019-03-28T00:23:08.267Z,31.80
2019-03-28T00:24:08.280Z,32.80
2019-03-28T00:25:08.256Z,30.70
2019-03-28T00:26:08.241Z,31.10
2019-03-28T00:27:08.229Z,33.50
2019-03-28T00:28:08.221Z,34.10
2019-03-28T00:29:08.221Z,30.50
2019-03-28T05:00:40.496Z,31.70
2019-03-28T05:01:40.465Z,51.50
2019-03-28T05:02:40.479Z,50.00
2019-03-28T05:03:40.450Z,52.00
2019-03-28T05:04:40.605Z,50.20
2019-03-28T05:05:40.431Z,53.50
2019-03-28T05:06:40.437Z,52.60
2019-03-28T05:07:40.407Z,50.40
2019-03-28T05:08:40.402Z,52.80
2019-03-28T05:09:40.385Z,53.70
2019-03-28T05:10:40.388Z,54.10
2019-03-28T05:11:40.383Z,49.10
2019-03-28T05:12:40.350Z,52.40
2019-03-28T05:13:40.339Z,53.50
2019-03-28T05:14:40.429Z,54.10
2019-03-28T05:15:40.336Z,53.70
2019-03-28T05:16:40.338Z,53.70
2019-03-28T05:17:40.589Z,53.40
2019-03-28T05:18:40.290Z,56.10
2019-03-28T05:19:40.273Z,53.10
2019-03-28T05:20:40.507Z,53.10
2019-03-28T05:21:40.257Z,49.30
2019-03-28T05:22:47.298Z,37.90
2019-03-28T05:23:40.584Z,40.90
2019-03-28T05:24:40.222Z,37.80
2019-03-28T05:25:40.218Z,38.60
2019-03-28T05:26:40.203Z,39.50
2019-03-28T05:27:40.211Z,43.30
2019-03-28T05:28:40.188Z,39.70
2019-03-28T05:29:40.178Z,44.40
2019-03-28T05:30:40.161Z,45.10
2019-03-28T05:31:40.153Z,43.70
2019-03-28T05:32:40.147Z,39.50
2019-03-28T05:33:40.150Z,42.60
2019-03-28T05:34:40.117Z,42.40
2019-03-28T05:35:40.106Z,43.50
2019-03-28T05:36:40.095Z,48.80
2019-03-28T05:37:40.114Z,44.90
2019-03-28T05:38:40.077Z,46.70
2019-03-28T05:39:40.084Z,46.30
2019-03-28T05:40:40.070Z,49.60
2019-03-28T05:41:40.042Z,45.50
2019-03-28T05:42:40.032Z,50.40
2019-03-28T05:43:40.026Z,53.10
2019-03-28T05:44:40.043Z,51.90
2019-03-28T05:45:40.008Z,51.00
2019-03-28T05:46:39.990Z,50.30
2019-03-28T05:47:39.980Z,56.70
2019-03-28T05:48:39.972Z,55.00
2019-03-28T05:49:39.987Z,52.80
2019-03-28T05:50:39.956Z,54.50
2019-03-28T05:51:39.945Z,56.80
2019-03-28T05:52:40.059Z,54.30
2019-03-28T05:53:39.912Z,51.90
2019-03-28T05:54:39.925Z,58.40
2019-03-28T05:55:39.902Z,62.20
2019-03-28T05:56:39.886Z,53.60
2019-03-28T05:57:39.897Z,55.20
2019-03-28T05:58:39.864Z,55.40
2019-03-28T05:59:39.854Z,54.90
2019-03-28T06:00:40.373Z,53.20
2019-03-28T06:01:39.834Z,51.80
2019-03-28T06:02:39.821Z,52.40
2019-03-28T06:03:39.833Z,53.20
2019-03-28T06:04:39.812Z,55.00
2019-03-28T06:05:39.790Z,56.10
2019-03-28T06:06:39.787Z,52.90
2019-03-28T06:07:39.778Z,53.00
2019-03-28T06:08:39.770Z,54.90
2019-03-28T06:09:40.373Z,53.00
2019-03-28T06:10:39.797Z,52.50
2019-03-28T06:11:39.749Z,53.50
2019-03-28T06:12:39.725Z,54.90
2019-03-28T06:13:39.702Z,53.70
2019-03-28T06:14:39.690Z,53.10
2019-03-28T06:15:40.997Z,62.40
2019-03-28T06:16:39.670Z,57.30
2019-03-28T06:17:39.668Z,56.00
2019-03-28T06:18:39.662Z,57.00
2019-03-28T06:19:39.651Z,55.20
2019-03-28T06:20:39.630Z,57.20
2019-03-28T06:21:39.888Z,53.40
2019-03-28T06:22:39.862Z,58.10
2019-03-28T06:23:39.641Z,56.10
2019-03-28T06:24:39.590Z,54.20
2019-03-28T06:25:41.009Z,57.70
2019-03-28T06:26:39.576Z,55.30
2019-03-28T06:27:39.559Z,56.90
2019-03-28T06:28:39.538Z,56.40
2019-03-28T06:29:39.536Z,56.70
2019-03-28T06:30:39.540Z,57.70
2019-03-28T06:31:39.527Z,57.30
2019-03-28T06:32:43.206Z,60.50
2019-03-28T06:33:39.506Z,58.20
2019-03-28T06:34:39.479Z,57.00
2019-03-28T06:35:39.466Z,57.40
2019-03-28T06:36:40.396Z,57.20
2019-03-28T06:37:39.456Z,58.70
2019-03-28T06:38:39.449Z,58.20
2019-03-28T06:39:39.421Z,58.20
2019-03-28T06:40:39.522Z,54.70
2019-03-28T06:41:39.404Z,56.70
2019-03-28T06:42:39.407Z,56.70
2019-03-28T06:43:41.980Z,57.20
2019-03-28T06:44:39.402Z,55.20
2019-03-28T06:45:39.354Z,53.50
2019-03-28T06:46:39.349Z,55.30
2019-03-28T06:47:39.336Z,55.20
2019-03-28T06:48:39.322Z,57.10
2019-03-28T06:49:39.325Z,52.20
2019-03-28T06:50:39.340Z,52.60
2019-03-28T06:51:39.303Z,52.40
2019-03-28T06:52:39.289Z,51.50
2019-03-28T06:53:39.274Z,50.90
2019-03-28T06:54:39.262Z,55.30
2019-03-28T06:55:39.268Z,51.50
2019-03-28T06:56:39.247Z,50.60
2019-03-28T06:57:39.228Z,51.90
2019-03-28T06:58:39.222Z,49.30
2019-03-28T06:59:39.221Z,48.60
2019-03-28T07:00:39.224Z,47.60
2019-03-28T07:01:39.198Z,47.60
2019-03-28T07:02:39.176Z,49.10
2019-03-28T07:03:39.170Z,47.70
2019-03-28T07:04:39.164Z,46.00
2019-03-28T07:05:39.158Z,44.20
2019-03-28T07:06:39.135Z,49.90
2019-03-28T07:07:39.128Z,51.10
2019-03-28T07:08:39.109Z,49.20
2019-03-28T07:09:39.104Z,53.00
2019-03-28T07:10:39.095Z,50.40
2019-03-28T07:11:39.101Z,51.10
2019-03-28T07:12:39.067Z,53.70
2019-03-28T07:13:39.075Z,51.50
2019-03-28T07:14:39.062Z,51.50
2019-03-28T07:15:39.077Z,52.60
2019-03-28T07:16:39.048Z,53.80
2019-03-28T07:17:39.113Z,53.10
2019-03-28T07:18:39.018Z,51.40
2019-03-28T07:19:38.995Z,55.80
2019-03-28T07:20:38.986Z,55.40
2019-03-28T07:21:38.971Z,54.20
2019-03-28T07:22:38.960Z,52.90
2019-03-28T07:23:38.967Z,54.70
2019-03-28T07:24:38.942Z,52.30
2019-03-28T07:25:38.933Z,56.20
2019-03-28T07:26:38.919Z,52.90
2019-03-28T07:27:38.921Z,50.40
2019-03-28T07:28:38.908Z,49.90
2019-03-28T07:29:50.262Z,52.50
2019-03-28T07:30:39.874Z,49.80
2019-03-28T07:31:38.873Z,50.50
2019-03-28T07:32:38.857Z,54.10
2019-03-28T07:33:38.863Z,51.00
2019-03-28T07:34:38.831Z,52.20
2019-03-28T07:35:38.818Z,51.80
2019-03-28T07:36:38.807Z,52.20
2019-03-28T07:37:38.809Z,55.00
2019-03-28T07:38:45.850Z,55.30
2019-03-28T07:39:45.814Z,49.00
2019-03-28T07:40:46.297Z,52.80
2019-03-28T07:41:46.290Z,53.50
2019-03-28T07:42:45.810Z,53.70
2019-03-28T07:43:45.805Z,55.60
2019-03-28T07:44:45.815Z,58.00
2019-03-28T07:45:45.807Z,56.60
2019-03-28T07:46:47.627Z,53.80
2019-03-28T07:47:46.236Z,60.00
2019-03-28T07:48:38.683Z,59.90
2019-03-28T07:49:38.691Z,57.50
2019-03-28T07:50:38.668Z,63.20
2019-03-28T07:51:38.666Z,61.40
2019-03-28T07:52:38.643Z,53.60
2019-03-28T07:53:38.638Z,52.00
2019-03-28T07:54:39.309Z,55.10
2019-03-28T07:55:38.621Z,52.50
2019-03-28T07:56:38.599Z,49.70
2019-03-28T07:57:38.631Z,55.70
2019-03-28T07:58:38.607Z,55.00
2019-03-28T07:59:38.560Z,53.70
2019-03-28T08:00:38.586Z,53.10
2019-03-28T08:01:38.559Z,51.10
2019-03-28T08:02:38.530Z,51.50
2019-03-28T08:03:39.950Z,50.20
2019-03-28T08:04:38.513Z,53.90
2019-03-28T08:05:38.492Z,54.10
2019-03-28T08:06:49.229Z,50.40
2019-03-28T08:07:45.354Z,53.30
2019-03-28T08:08:40.786Z,53.70
2019-03-28T08:09:38.457Z,52.60
2019-03-28T08:10:38.447Z,54.60
2019-03-28T08:11:38.809Z,52.60
2019-03-28T08:12:38.422Z,60.50
2019-03-28T08:13:38.413Z,58.20
2019-03-28T08:14:38.400Z,58.40
2019-03-28T08:15:38.389Z,49.40
2019-03-28T08:16:38.405Z,51.10
2019-03-28T08:17:38.371Z,51.50
2019-03-28T08:18:38.367Z,53.80
2019-03-28T08:19:41.529Z,52.60
2019-03-28T08:20:38.330Z,55.20
2019-03-28T08:21:38.348Z,53.50
2019-03-28T08:22:38.313Z,50.80
2019-03-28T08:23:38.312Z,55.20
2019-03-28T08:24:38.296Z,56.10
2019-03-28T08:25:38.280Z,54.50
2019-03-28T08:26:38.276Z,56.40
2019-03-28T08:27:38.311Z,52.20
2019-03-28T08:28:38.257Z,51.50
2019-03-28T08:29:38.250Z,59.40
2019-03-28T08:30:38.224Z,55.40
2019-03-28T08:31:40.728Z,53.60
2019-03-28T08:32:39.882Z,56.10
2019-03-28T08:33:38.200Z,55.60
2019-03-28T08:34:38.209Z,57.30
2019-03-28T08:35:38.181Z,56.50
2019-03-28T08:36:38.163Z,54.90
2019-03-28T08:37:38.146Z,56.70
2019-03-28T08:38:38.139Z,58.30
2019-03-28T08:39:38.145Z,57.10
2019-03-28T08:40:39.818Z,55.00
2019-03-28T08:41:38.108Z,55.90
2019-03-28T08:42:38.099Z,60.30
2019-03-28T08:43:38.136Z,65.30
2019-03-28T08:44:38.674Z,59.70
2019-03-28T08:45:38.086Z,57.40
2019-03-28T08:46:38.069Z,56.60
2019-03-28T08:47:38.045Z,61.50
2019-03-28T08:48:38.032Z,55.30
2019-03-28T08:49:38.020Z,58.10
2019-03-28T08:50:38.021Z,55.20
2019-03-28T08:51:38.012Z,55.60
2019-03-28T08:52:38.005Z,58.30
2019-03-28T08:53:37.989Z,60.00
2019-03-28T08:54:37.972Z,57.80
2019-03-28T08:55:37.968Z,56.80
2019-03-28T08:56:37.990Z,56.20
2019-03-28T08:57:37.935Z,56.70
2019-03-28T08:58:38.400Z,54.60
2019-03-28T08:59:37.926Z,61.30
2019-03-28T09:00:50.890Z,62.10
2019-03-28T09:01:38.967Z,59.00
2019-03-28T09:02:37.879Z,60.00
2019-03-28T09:03:38.072Z,60.20
2019-03-28T09:04:37.859Z,60.80
2019-03-28T09:05:37.854Z,59.30
2019-03-28T09:06:37.854Z,63.70
2019-03-28T09:07:37.854Z,59.40
2019-03-28T09:08:37.832Z,57.70
2019-03-28T09:09:37.812Z,57.40
2019-03-28T09:10:37.796Z,59.80
2019-03-28T09:11:37.810Z,57.90
2019-03-28T09:12:37.806Z,58.80
2019-03-28T09:13:37.793Z,57.90
2019-03-28T09:14:37.755Z,55.40
2019-03-28T09:15:43.535Z,56.60
2019-03-28T09:16:38.737Z,55.50
2019-03-28T09:17:37.732Z,57.00
2019-03-28T09:18:37.713Z,54.90
2019-03-28T09:19:39.114Z,58.00
2019-03-28T09:20:37.699Z,53.70
2019-03-28T09:21:37.689Z,49.70
2019-03-28T09:22:39.119Z,53.30
2019-03-28T09:23:37.680Z,59.80
2019-03-28T09:24:37.651Z,55.70
2019-03-28T09:25:37.645Z,53.00
2019-03-28T09:26:37.639Z,55.80
2019-03-28T09:27:37.976Z,52.50
2019-03-28T09:28:37.809Z,52.30
2019-03-28T09:29:37.917Z,55.50
2019-03-28T09:30:48.043Z,52.70
2019-03-28T09:31:38.575Z,53.20
2019-03-28T09:32:37.599Z,51.30
2019-03-28T09:33:40.533Z,51.80
2019-03-28T09:34:37.543Z,51.00
2019-03-28T09:35:37.554Z,53.20
2019-03-28T09:36:37.533Z,45.40
2019-03-28T09:37:37.515Z,47.90
2019-03-28T09:38:37.509Z,52.10
2019-03-28T09:39:37.506Z,49.40
2019-03-28T09:40:37.484Z,50.60
2019-03-28T09:41:37.471Z,45.90
2019-03-28T09:42:37.564Z,47.10
2019-03-28T09:43:37.449Z,48.30
2019-03-28T09:44:37.471Z,44.60
2019-03-28T09:45:37.429Z,44.50
2019-03-28T09:46:37.414Z,48.90
2019-03-28T09:47:37.401Z,47.20
2019-03-28T09:48:37.388Z,43.30
2019-03-28T09:49:37.380Z,37.80
2019-03-28T09:50:37.466Z,42.00
2019-03-28T09:51:37.360Z,40.20
2019-03-28T09:52:37.360Z,44.50
2019-03-28T09:53:37.358Z,43.90
2019-03-28T09:54:37.342Z,42.90
2019-03-28T09:55:37.314Z,39.10
2019-03-28T09:56:37.311Z,43.40
2019-03-28T09:57:37.300Z,36.90
2019-03-28T09:58:37.279Z,33.70
2019-03-28T09:59:37.300Z,31.00
2019-03-28T10:00:37.273Z,32.60
2019-03-28T10:01:37.242Z,34.60
2019-03-28T10:02:37.233Z,36.00
2019-03-28T10:03:37.225Z,35.70
2019-03-28T10:04:37.233Z,41.20
2019-03-28T10:05:38.127Z,47.60
2019-03-28T10:06:37.193Z,46.00
2019-03-28T10:07:38.646Z,47.70
2019-03-28T10:08:37.172Z,41.50
2019-03-28T10:09:37.382Z,45.10
2019-03-28T10:10:37.150Z,47.20
2019-03-28T10:11:37.151Z,41.90
2019-03-28T10:12:37.128Z,40.70
2019-03-28T10:13:37.110Z,46.60
2019-03-28T10:14:37.128Z,41.30
2019-03-28T10:15:37.308Z,33.60
2019-03-28T10:16:40.157Z,35.00
2019-03-28T10:17:37.071Z,27.80
2019-03-28T10:18:37.059Z,28.40
2019-03-28T10:19:37.063Z,28.50
2019-03-28T10:20:37.032Z,31.30
2019-03-28T10:21:37.597Z,30.60
2019-03-28T10:22:37.024Z,29.70
2019-03-28T10:23:39.751Z,28.60
2019-03-28T10:24:37.014Z,25.80
2019-03-28T10:25:36.993Z,27.30
2019-03-28T10:26:37.001Z,37.50
2019-03-28T10:27:36.961Z,41.70
2019-03-28T10:28:36.960Z,47.00
2019-03-28T10:29:36.946Z,49.20
2019-03-28T10:30:36.933Z,41.90
2019-03-28T10:31:36.920Z,41.60
2019-03-28T10:32:36.928Z,43.10
2019-03-28T10:33:36.895Z,42.60
2019-03-28T10:34:36.886Z,41.40
2019-03-28T10:35:36.877Z,38.20
2019-03-28T10:36:36.907Z,41.60
2019-03-28T10:37:36.857Z,39.20
2019-03-28T10:38:36.850Z,39.50
2019-03-28T10:39:36.843Z,40.70
2019-03-28T10:40:36.842Z,34.60
2019-03-28T10:41:39.691Z,35.80
2019-03-28T10:42:36.817Z,36.10
2019-03-28T10:43:36.814Z,35.30
2019-03-28T10:44:36.781Z,37.60
2019-03-28T10:45:36.762Z,35.60
2019-03-28T10:46:36.754Z,31.80
2019-03-28T10:47:36.745Z,34.00
2019-03-28T10:48:36.753Z,30.30
2019-03-28T10:49:36.727Z,30.30
2019-03-28T10:50:41.653Z,29.90
2019-03-28T10:51:37.699Z,28.80
2019-03-28T10:52:36.688Z,28.10
2019-03-28T10:53:36.688Z,26.30
2019-03-28T10:54:36.684Z,29.10
2019-03-28T10:55:36.673Z,28.60
2019-03-28T10:56:50.774Z,29.80
2019-03-28T10:57:37.632Z,29.90
2019-03-28T10:58:36.641Z,27.40
2019-03-28T10:59:36.637Z,28.70
2019-03-28T11:00:36.600Z,29.00
2019-03-28T11:01:49.073Z,29.40
2019-03-28T11:02:38.683Z,29.70
2019-03-28T11:03:36.571Z,25.10
2019-03-28T11:04:36.580Z,27.20
2019-03-28T11:05:36.646Z,28.10
2019-03-28T11:06:36.539Z,30.20
2019-03-28T11:07:36.532Z,31.80
2019-03-28T11:08:36.805Z,29.30
2019-03-28T11:09:36.534Z,27.00
2019-03-28T11:10:36.500Z,32.10
2019-03-28T11:11:36.487Z,28.30
2019-03-28T11:12:36.471Z,28.70
2019-03-28T11:13:36.497Z,29.10
2019-03-28T11:14:36.453Z,26.30
2019-03-28T11:15:36.464Z,25.40
2019-03-28T11:16:36.434Z,25.60
2019-03-28T11:17:36.437Z,26.00
2019-03-28T11:18:36.412Z,24.50
2019-03-28T11:19:36.399Z,26.50
2019-03-28T11:20:39.859Z,23.80
2019-03-28T11:21:36.399Z,23.60
2019-03-28T11:22:36.369Z,25.20
2019-03-28T11:23:36.357Z,24.10
2019-03-28T11:24:36.352Z,24.20
2019-03-28T11:25:36.336Z,27.80
2019-03-28T11:26:36.340Z,32.30
2019-03-28T11:27:36.341Z,31.70
2019-03-28T11:28:36.333Z,32.40
2019-03-28T11:29:36.302Z,30.00
2019-03-28T11:30:36.279Z,26.70
2019-03-28T11:31:46.200Z,30.30
2019-03-28T11:32:37.299Z,29.30
2019-03-28T11:33:36.248Z,29.30
2019-03-28T11:34:36.237Z,31.30
2019-03-28T11:35:36.228Z,30.30
2019-03-28T11:36:36.210Z,30.30
2019-03-28T11:37:36.206Z,31.40
2019-03-28T11:38:36.205Z,29.80
2019-03-28T11:39:36.181Z,27.40
2019-03-28T11:40:36.186Z,26.80
2019-03-28T11:41:36.170Z,27.80
2019-03-28T11:42:36.158Z,25.90
2019-03-28T11:43:36.141Z,27.10
2019-03-28T11:44:36.120Z,24.60
2019-03-28T11:45:36.118Z,31.10
2019-03-28T11:46:36.127Z,31.50
2019-03-28T11:47:36.121Z,29.90
2019-03-28T11:48:36.082Z,28.40
2019-03-28T11:49:36.072Z,29.70
2019-03-28T11:50:36.061Z,33.60
2019-03-28T11:51:36.521Z,27.80
2019-03-28T11:52:36.046Z,27.60
2019-03-28T11:53:36.051Z,34.30
2019-03-28T11:54:36.034Z,34.10
2019-03-28T11:55:36.000Z,30.10
2019-03-28T11:56:35.993Z,27.60
2019-03-28T11:57:36.030Z,27.20
2019-03-28T11:58:35.993Z,29.00
2019-03-28T11:59:35.982Z,28.70
2019-03-28T12:00:35.958Z,26.80
2019-03-28T12:01:35.956Z,29.20
2019-03-28T12:02:35.953Z,31.30
2019-03-28T12:03:35.928Z,30.00
2019-03-28T12:04:38.606Z,32.30
2019-03-28T12:05:35.897Z,31.70
2019-03-28T12:06:35.904Z,31.70
2019-03-28T12:07:35.884Z,30.40
2019-03-28T12:08:35.892Z,28.50
2019-03-28T12:09:35.869Z,31.80
2019-03-28T12:10:35.841Z,28.10
2019-03-28T12:11:35.832Z,29.40
2019-03-28T12:12:35.819Z,29.80
2019-03-28T12:13:44.793Z,31.50
2019-03-28T12:14:36.823Z,29.70
2019-03-28T12:15:35.795Z,31.80
2019-03-28T12:16:35.777Z,30.70
2019-03-28T12:17:35.793Z,29.80
2019-03-28T12:18:35.757Z,30.70
2019-03-28T12:19:35.762Z,30.90
2019-03-28T12:20:35.754Z,27.80
2019-03-28T12:21:35.724Z,29.70
2019-03-28T12:22:35.707Z,28.40
2019-03-28T12:23:35.706Z,28.20
2019-03-28T12:24:35.709Z,31.30
2019-03-28T12:25:35.680Z,32.10
2019-03-28T12:26:35.694Z,29.70
2019-03-28T12:27:35.658Z,29.70
2019-03-28T12:28:35.647Z,32.20
2019-03-28T12:29:36.051Z,32.70
2019-03-28T12:30:35.627Z,34.40
2019-03-28T12:31:35.619Z,33.50
2019-03-28T12:32:35.639Z,34.90
2019-03-28T12:33:35.590Z,34.00
2019-03-28T12:34:35.584Z,32.70
2019-03-28T12:35:35.590Z,32.80
2019-03-28T12:36:35.568Z,33.80
2019-03-28T12:37:36.705Z,36.50
2019-03-28T12:38:35.543Z,36.00
2019-03-28T12:39:35.529Z,35.40
2019-03-28T12:40:35.535Z,33.70
2019-03-28T12:41:35.503Z,34.50
2019-03-28T12:42:35.511Z,35.00
2019-03-28T12:43:35.486Z,40.00
2019-03-28T12:44:35.484Z,34.60
2019-03-28T12:45:35.463Z,38.50
2019-03-28T12:46:35.474Z,40.50
2019-03-28T12:47:42.305Z,38.80
2019-03-28T12:48:36.425Z,40.30
2019-03-28T12:49:35.423Z,41.60
2019-03-28T12:50:35.408Z,39.80
2019-03-28T12:51:35.403Z,40.30
2019-03-28T12:52:35.398Z,44.40
2019-03-28T12:53:36.067Z,42.80
2019-03-28T12:54:35.399Z,46.80
2019-03-28T12:55:35.349Z,44.60
2019-03-28T12:56:35.359Z,47.70
2019-03-28T12:57:35.344Z,44.20
2019-03-28T12:58:35.322Z,49.10
2019-03-28T12:59:35.313Z,45.30
2019-03-28T13:00:35.303Z,48.10
2019-03-28T13:01:35.309Z,50.30
2019-03-28T13:02:35.315Z,47.80
2019-03-28T13:03:45.384Z,46.50
2019-03-28T13:04:36.257Z,45.00
2019-03-28T13:05:35.259Z,48.80
2019-03-28T13:06:35.231Z,49.60
2019-03-28T13:07:35.232Z,48.80
2019-03-28T13:08:35.210Z,52.60
2019-03-28T13:09:35.861Z,48.90
2019-03-28T13:10:35.198Z,54.00
2019-03-28T13:11:35.182Z,49.80
2019-03-28T13:12:42.230Z,57.20
2019-03-28T13:13:42.191Z,53.40
2019-03-28T13:14:42.191Z,53.50
2019-03-28T13:15:42.688Z,54.60
2019-03-28T13:16:42.170Z,53.40
2019-03-28T13:17:42.151Z,56.10
2019-03-28T13:18:42.162Z,56.60
2019-03-28T13:19:42.132Z,52.20
2019-03-28T13:20:43.134Z,52.50
2019-03-28T13:21:35.066Z,52.00
2019-03-28T13:22:35.056Z,53.10
2019-03-28T13:23:35.047Z,57.10
2019-03-28T13:24:35.059Z,53.30
2019-03-28T13:25:35.040Z,56.80
2019-03-28T13:26:35.006Z,57.80
2019-03-28T13:27:36.431Z,59.30
2019-03-28T13:28:34.987Z,58.40
2019-03-28T13:29:34.975Z,57.90
2019-03-28T13:30:35.046Z,54.30
2019-03-28T13:31:34.951Z,54.00
2019-03-28T13:32:41.648Z,56.90
2019-03-28T13:33:35.932Z,53.80
2019-03-28T13:34:34.912Z,56.60
2019-03-28T13:35:35.528Z,55.40
2019-03-28T13:36:34.899Z,53.40
2019-03-28T13:37:34.886Z,53.00
2019-03-28T13:38:34.879Z,54.20
2019-03-28T13:39:34.857Z,54.20
2019-03-28T13:40:34.868Z,53.90
2019-03-28T13:41:34.837Z,55.90
2019-03-28T13:42:34.869Z,53.70
2019-03-28T13:43:34.824Z,54.00
2019-03-28T13:44:34.821Z,56.90
2019-03-28T13:45:34.790Z,54.70
2019-03-28T13:46:34.796Z,55.10
2019-03-28T13:47:34.773Z,53.40
2019-03-28T13:48:34.765Z,57.00
2019-03-28T13:49:34.756Z,56.00
2019-03-28T13:50:34.744Z,57.10
2019-03-28T13:51:34.768Z,57.40
2019-03-28T13:52:34.724Z,59.30
2019-03-28T13:53:39.736Z,55.10
2019-03-28T13:54:35.695Z,54.80
2019-03-28T13:55:34.701Z,54.70
2019-03-28T13:56:34.707Z,57.90
2019-03-28T13:57:34.715Z,52.50
2019-03-28T13:58:34.656Z,57.40
2019-03-28T13:59:35.470Z,55.20
2019-03-28T14:00:34.631Z,53.90
2019-03-28T14:01:34.650Z,55.90
2019-03-28T14:02:34.659Z,59.60
2019-03-28T14:03:34.608Z,54.60
2019-03-28T14:04:34.587Z,59.10
2019-03-28T14:05:34.598Z,58.00
2019-03-28T14:06:34.584Z,57.40
2019-03-28T14:07:34.580Z,56.60
2019-03-28T14:08:34.551Z,57.90
2019-03-28T14:09:34.540Z,54.90
2019-03-28T14:10:34.525Z,56.20
2019-03-28T14:11:34.524Z,56.60
2019-03-28T14:12:34.527Z,53.40
2019-03-28T14:13:34.492Z,57.30
2019-03-28T14:14:34.480Z,55.20
2019-03-28T14:15:34.473Z,52.20
2019-03-28T14:16:34.476Z,53.10
2019-03-28T14:17:35.077Z,53.00
2019-03-28T14:18:34.435Z,56.10
2019-03-28T14:19:34.492Z,55.40
2019-03-28T14:20:34.427Z,56.10
2019-03-28T14:21:34.414Z,54.00
2019-03-28T14:22:34.427Z,53.10
2019-03-28T14:23:34.392Z,57.40
2019-03-28T14:24:34.371Z,59.20
2019-03-28T14:25:34.669Z,58.20
2019-03-28T14:26:37.504Z,57.60
2019-03-28T14:27:34.378Z,55.60
2019-03-28T14:28:34.354Z,53.80
2019-03-28T14:29:34.328Z,54.30
2019-03-28T14:30:34.309Z,55.90
2019-03-28T14:31:34.294Z,59.30
2019-03-28T14:32:34.282Z,55.10
2019-03-28T14:33:34.283Z,57.90
2019-03-28T14:34:34.286Z,59.00
2019-03-28T14:35:34.271Z,57.10
2019-03-28T14:36:34.239Z,56.50
2019-03-28T14:37:34.229Z,55.00
2019-03-28T14:38:37.345Z,58.20
2019-03-28T14:39:35.365Z,54.80
2019-03-28T14:40:34.216Z,54.50
2019-03-28T14:41:34.193Z,56.10
2019-03-28T14:42:34.186Z,50.50
2019-03-28T14:43:34.166Z,51.50
2019-03-28T14:44:34.173Z,52.00
2019-03-28T14:45:34.147Z,52.30
2019-03-28T14:46:34.132Z,51.60
2019-03-28T14:47:34.126Z,54.10
2019-03-28T14:48:34.115Z,54.40
2019-03-28T14:49:34.276Z,53.40
2019-03-28T14:50:34.138Z,52.90
2019-03-28T14:51:34.083Z,57.20
2019-03-28T14:52:35.224Z,57.40
2019-03-28T14:53:34.065Z,56.70
2019-03-28T14:54:34.065Z,58.00
2019-03-28T14:55:34.056Z,58.90
2019-03-28T14:56:34.032Z,57.10
2019-03-28T14:57:34.022Z,60.40
2019-03-28T14:58:34.004Z,56.70
2019-03-28T14:59:34.681Z,57.50
2019-03-28T15:00:33.986Z,56.30
2019-03-28T15:01:33.988Z,56.30
2019-03-28T15:02:33.961Z,58.10
2019-03-28T15:03:33.986Z,53.60
2019-03-28T15:04:33.945Z,58.30
2019-03-28T15:05:33.933Z,54.80
2019-03-28T15:06:33.937Z,55.20
2019-03-28T15:07:33.912Z,53.30
2019-03-28T15:08:33.900Z,55.90
2019-03-28T15:09:33.887Z,55.00
2019-03-28T15:10:33.881Z,56.90
2019-03-28T15:11:33.865Z,54.10
2019-03-28T15:12:33.877Z,55.20
2019-03-28T15:13:33.843Z,56.40
2019-03-28T15:14:33.869Z,53.80
2019-03-28T15:15:33.825Z,55.60
2019-03-28T15:16:33.805Z,61.20
2019-03-28T15:17:33.825Z,59.20
2019-03-28T15:18:33.798Z,57.30
2019-03-28T15:19:33.780Z,60.10
2019-03-28T15:20:33.770Z,60.90
2019-03-28T15:21:33.765Z,62.70
2019-03-28T15:22:33.741Z,58.30
2019-03-28T15:23:33.756Z,58.90
2019-03-28T15:24:33.773Z,58.60
2019-03-28T15:26:41.088Z,58.30
2019-03-28T15:27:33.703Z,59.60
2019-03-28T15:29:21.923Z,59.30
2019-03-28T15:29:40.486Z,57.90
2019-03-28T15:30:41.420Z,54.50
2019-03-28T15:32:55.926Z,53.30
2019-03-28T15:33:57.953Z,57.40
2019-03-28T15:35:02.164Z,52.90
2019-03-28T15:35:55.023Z,56.20
2019-03-28T15:36:54.942Z,53.10
2019-03-28T15:37:54.984Z,57.70
2019-03-28T15:38:54.937Z,54.60
2019-03-28T15:39:55.052Z,56.40
2019-03-28T15:40:54.894Z,56.10
2019-03-28T15:41:54.901Z,55.10
2019-03-28T15:43:17.070Z,55.50
2019-03-28T15:43:54.879Z,56.90
2019-03-28T15:44:54.901Z,54.50
2019-03-28T15:45:54.841Z,54.70
2019-03-28T15:46:54.828Z,58.40
2019-03-28T15:47:54.834Z,54.50
2019-03-28T15:48:54.815Z,55.80
2019-03-28T15:49:54.818Z,56.90
2019-03-28T15:50:54.823Z,53.90
2019-03-28T15:51:54.779Z,56.60
2019-03-28T15:52:54.778Z,53.10
2019-03-28T15:53:54.754Z,55.40
2019-03-28T15:54:54.740Z,56.40
2019-03-28T15:55:54.762Z,58.50
2019-03-28T15:56:54.735Z,53.00
2019-03-28T15:57:54.705Z,56.30
2019-03-28T15:58:54.694Z,54.90
2019-03-28T15:59:54.690Z,53.50
2019-03-28T16:00:54.707Z,52.20
2019-03-28T16:01:55.291Z,53.60
2019-03-28T16:02:58.263Z,51.50
2019-03-28T16:03:54.654Z,56.30
2019-03-28T16:04:54.669Z,53.10
2019-03-28T16:05:58.498Z,54.70
2019-03-28T16:06:54.708Z,55.50
2019-03-28T16:07:54.599Z,53.30
2019-03-28T16:08:54.589Z,58.40
2019-03-28T16:09:54.575Z,53.90
2019-03-28T16:10:54.763Z,53.10
2019-03-28T16:12:02.591Z,54.30
2019-03-28T16:12:55.541Z,53.80
2019-03-28T16:13:54.534Z,52.60
2019-03-28T16:14:55.730Z,52.60
2019-03-28T16:15:54.517Z,51.30
2019-03-28T16:16:55.177Z,51.60
2019-03-28T16:17:57.560Z,52.40
2019-03-28T16:18:54.483Z,52.00
2019-03-28T16:19:54.467Z,51.30
2019-03-28T16:20:54.460Z,51.80
2019-03-28T16:21:54.462Z,53.90
2019-03-28T16:22:54.432Z,52.10
2019-03-28T16:23:54.436Z,51.80
2019-03-28T16:24:54.412Z,52.50
2019-03-28T16:25:54.402Z,53.50
2019-03-28T16:26:54.495Z,51.40
2019-03-28T16:27:54.383Z,52.00
2019-03-28T16:28:56.487Z,51.90
2019-03-28T16:29:54.607Z,53.30
2019-03-28T16:30:54.345Z,52.00
2019-03-28T16:31:54.367Z,54.90
2019-03-28T16:32:54.428Z,53.50
2019-03-28T16:34:06.180Z,54.30
2019-03-28T16:34:55.336Z,53.50
2019-03-28T16:35:55.203Z,55.10
2019-03-28T16:36:54.299Z,57.50
2019-03-28T16:37:54.327Z,56.90
2019-03-28T16:38:54.277Z,55.90
2019-03-28T16:39:54.269Z,53.00
2019-03-28T16:40:54.242Z,55.50
2019-03-28T16:41:54.265Z,56.20
2019-03-28T16:42:54.211Z,57.70
2019-03-28T16:43:54.249Z,52.70
2019-03-28T16:44:54.188Z,56.00
2019-03-28T16:45:54.209Z,54.80
2019-03-28T16:46:54.176Z,55.70
2019-03-28T16:47:54.158Z,53.40
2019-03-28T16:48:54.152Z,58.20
2019-03-28T16:49:54.136Z,51.80
2019-03-28T16:50:54.140Z,55.10
2019-03-28T16:51:54.132Z,57.90
2019-03-28T16:52:54.108Z,54.20
2019-03-28T16:53:54.093Z,48.80
2019-03-28T16:54:54.082Z,48.40
2019-03-28T16:55:54.598Z,50.40
2019-03-28T16:56:54.061Z,52.40
2019-03-28T16:57:54.140Z,49.70
2019-03-28T16:58:55.509Z,54.40
2019-03-28T16:59:54.111Z,54.50
2019-03-28T17:00:54.024Z,50.00
2019-03-28T17:01:54.024Z,50.70
2019-03-28T17:02:54.032Z,49.70
2019-03-28T17:03:54.083Z,52.30
2019-03-28T17:04:53.981Z,53.50
2019-03-28T17:05:53.977Z,52.20
2019-03-28T17:06:53.978Z,52.50
2019-03-28T17:07:54.033Z,52.50
2019-03-28T17:08:53.965Z,53.00
2019-03-28T17:09:53.936Z,48.40
2019-03-28T17:10:53.930Z,53.30
2019-03-28T17:11:53.908Z,54.30
2019-03-28T17:12:53.913Z,53.80
2019-03-28T17:13:53.882Z,50.80
2019-03-28T17:14:53.881Z,51.40
2019-03-28T17:15:53.871Z,54.90
2019-03-28T17:16:53.858Z,50.10
2019-03-28T17:17:53.873Z,55.00
2019-03-28T17:18:53.854Z,53.70
2019-03-28T17:19:53.824Z,53.20
2019-03-28T17:20:53.823Z,52.40
2019-03-28T17:21:53.799Z,53.60
2019-03-28T17:22:53.809Z,54.50
2019-03-28T17:23:53.932Z,52.50
2019-03-28T17:24:53.858Z,56.30